Time;durP1;ratioP1;P1;durP2;ratioP2;P2;SDS_P1;SDS_P2;PMS_P1;PMS_P2;Temp;Humidity;BMP_temperature;BMP_pressure;BME280_temperature;BME280_humidity;BME280_pressure;Samples;Min_cycle;Max_cycle;Signal;HPM_P1;HPM_P2
2021/11/18 00:01:13;;;;;;;35.90;14.82;;;;;;;11.36;59.02;101812.28;6105486;23;96666;-86
2021/11/18 00:03:40;;;;;;;40.30;15.90;;;;;;;11.73;58.06;101809.69;6106302;23;98919;-85
2021/11/18 00:06:06;;;;;;;39.00;14.73;;;;;;;11.93;57.39;101810.13;6075723;23;97454;-85
2021/11/18 00:08:34;;;;;;;44.53;15.18;;;;;;;11.69;57.44;101797.41;6101943;23;96903;-87
2021/11/18 00:11:04;;;;;;;34.35;15.35;;;;;;;10.75;60.15;101808.25;6103218;23;96768;-86
2021/11/18 00:13:36;;;;;;;39.38;14.88;;;;;;;11.32;59.42;101815.91;6103938;23;100876;-86
2021/11/18 00:16:04;;;;;;;43.53;15.52;;;;;;;11.48;59.14;101806.72;6103762;23;99434;-87
2021/11/18 00:18:34;;;;;;;41.42;14.50;;;;;;;11.81;58.00;101804.25;6105326;23;96523;-87
2021/11/18 00:21:05;;;;;;;40.55;15.98;;;;;;;11.84;57.51;101807.69;6076961;23;96744;-86
2021/11/18 00:23:36;;;;;;;37.95;15.00;;;;;;;11.62;58.06;101802.91;6102200;23;101295;-87
2021/11/18 00:26:03;;;;;;;36.40;14.68;;;;;;;11.69;57.86;101804.47;6101976;23;99772;-87
2021/11/18 00:28:33;;;;;;;42.35;15.10;;;;;;;11.25;58.77;101811.63;6102368;23;96596;-86
2021/11/18 00:31:00;;;;;;;30.05;12.93;;;;;;;11.46;57.74;101812.94;6114231;23;96774;-87
2021/11/18 00:33:28;;;;;;;39.55;14.38;;;;;;;11.70;58.07;101817.69;6121453;22;99556;-86
2021/11/18 00:35:55;;;;;;;38.03;13.60;;;;;;;11.68;57.09;101813.34;6097387;23;96955;-87
2021/11/18 00:38:22;;;;;;;36.65;13.23;;;;;;;11.77;57.88;101810.50;6121896;22;96133;-87
2021/11/18 00:40:51;;;;;;;37.10;14.90;;;;;;;11.27;58.90;101823.06;6122247;22;96850;-86
2021/11/18 00:43:20;;;;;;;35.10;13.32;;;;;;;11.52;58.20;101826.91;6119944;23;99043;-85
2021/11/18 00:45:52;;;;;;;39.17;14.60;;;;;;;11.17;57.65;101829.44;6116898;23;99216;-86
2021/11/18 00:48:19;;;;;;;42.17;14.00;;;;;;;11.38;58.53;101850.16;6066922;23;96398;-86
2021/11/18 00:50:48;;;;;;;42.97;14.65;;;;;;;11.54;58.27;101845.44;6119920;22;95957;-86
2021/11/18 00:53:15;;;;;;;45.80;15.63;;;;;;;11.35;57.27;101834.38;6121087;22;99041;-86
2021/11/18 00:55:42;;;;;;;38.50;13.70;;;;;;;11.48;58.28;101843.78;6123944;22;98090;-84
2021/11/18 00:58:08;;;;;;;40.78;14.13;;;;;;;11.66;57.45;101854.88;6124774;22;95813;-85
2021/11/18 01:00:37;;;;;;;38.83;14.30;;;;;;;11.74;57.16;101848.53;6125017;22;97337;-86
2021/11/18 01:03:09;;;;;;;35.78;13.50;;;;;;;11.58;57.54;101852.38;6124002;22;96702;-85
2021/11/18 01:05:40;;;;;;;36.88;13.43;;;;;;;11.73;57.54;101857.34;6114520;22;99552;-87
2021/11/18 01:08:09;;;;;;;34.13;13.02;;;;;;;11.88;56.68;101861.47;6109696;23;96555;-86
2021/11/18 01:10:39;;;;;;;35.00;13.32;;;;;;;11.82;56.86;101854.50;6104295;23;96706;-88
2021/11/18 01:13:09;;;;;;;42.80;14.27;;;;;;;11.92;56.60;101860.47;6076656;23;98240;-87
2021/11/18 01:15:39;;;;;;;36.45;13.38;;;;;;;11.85;56.50;101869.47;6110539;23;99024;-88
2021/11/18 01:18:07;;;;;;;32.90;13.60;;;;;;;11.77;56.94;101869.63;6122498;22;96302;-87
2021/11/18 01:20:35;;;;;;;35.05;13.20;;;;;;;12.02;56.26;101875.22;6124281;22;96456;-87
2021/11/18 01:23:06;;;;;;;35.97;14.15;;;;;;;11.27;58.02;101872.47;6119231;22;96858;-88
2021/11/18 01:25:35;;;;;;;41.80;13.40;;;;;;;11.55;57.36;101879.78;6101272;23;98119;-88
2021/11/18 01:28:03;;;;;;;42.00;14.82;;;;;;;11.53;57.62;101876.31;6101332;23;96572;-89
2021/11/18 01:30:33;;;;;;;38.70;13.57;;;;;;;11.66;57.89;101870.75;6101837;23;96896;-89
2021/11/18 01:35:46;;;;;;;39.40;12.90;;;;;;;11.76;57.05;101862.59;6098687;23;96628;-89
2021/11/18 01:38:14;;;;;;;41.80;13.50;;;;;;;11.48;57.72;101875.53;6102729;23;96539;-88
2021/11/18 01:40:53;;;;;;;29.38;13.13;;;;;;;11.69;57.15;101875.97;6102523;23;96801;-88
2021/11/18 01:43:24;;;;;;;38.72;13.50;;;;;;;11.71;56.71;101882.97;6102548;23;99551;-88
2021/11/18 01:45:55;;;;;;;35.15;13.27;;;;;;;11.89;56.49;101887.88;6102949;23;100319;-88
2021/11/18 01:48:22;;;;;;;38.95;12.98;;;;;;;11.80;56.44;101892.53;6101665;23;97003;-87
2021/11/18 01:50:56;;;;;;;37.67;13.13;;;;;;;12.00;56.15;101885.00;6101715;23;96792;-89
2021/11/18 01:53:28;;;;;;;38.35;13.18;;;;;;;11.68;56.25;101895.44;6100832;23;99195;-89
2021/11/18 01:55:57;;;;;;;38.60;13.77;;;;;;;11.70;56.77;101893.59;6100299;23;98546;-89
2021/11/18 02:01:16;;;;;;;39.97;12.60;;;;;;;11.67;56.54;101888.38;6099380;23;96778;-88
2021/11/18 02:03:53;;;;;;;38.47;12.98;;;;;;;11.73;56.66;101896.19;6098718;23;100222;-88
2021/11/18 02:06:25;;;;;;;27.00;12.48;;;;;;;11.54;57.02;101896.59;6100601;23;96585;-88
2021/11/18 02:08:52;;;;;;;36.53;13.45;;;;;;;11.58;57.08;101898.25;6100235;23;96653;-88
2021/11/18 02:11:30;;;;;;;38.20;13.15;;;;;;;11.53;57.40;101886.91;6100629;23;96725;-87
2021/11/18 02:13:58;;;;;;;34.95;13.20;;;;;;;11.13;58.47;101893.91;6098868;23;99131;-87
2021/11/18 02:16:28;;;;;;;44.05;13.50;;;;;;;11.36;58.13;101904.88;6098780;23;100008;-88
2021/11/18 02:18:57;;;;;;;38.10;13.77;;;;;;;11.31;57.99;101898.81;6099600;23;96609;-88
2021/11/18 02:21:33;;;;;;;36.40;13.18;;;;;;;11.58;57.69;101898.25;6100005;23;96619;-86
2021/11/18 02:24:04;;;;;;;37.53;13.57;;;;;;;10.63;59.71;101905.44;6100178;23;100012;-87
2021/11/18 02:26:33;;;;;;;36.50;13.45;;;;;;;10.97;58.86;101910.97;6098939;23;100368;-87
2021/11/18 02:29:06;;;;;;;43.65;14.63;;;;;;;11.12;58.22;101908.03;6100786;23;96548;-87
2021/11/18 02:31:36;;;;;;;43.88;14.18;;;;;;;11.06;58.73;101903.75;6100278;23;96900;-89
2021/11/18 02:34:14;;;;;;;42.08;14.15;;;;;;;11.28;58.40;101914.78;6098940;23;100107;-87
2021/11/18 02:36:43;;;;;;;39.90;13.80;;;;;;;11.13;58.49;101909.78;6099789;23;98052;-86
2021/11/18 02:39:16;;;;;;;43.53;14.60;;;;;;;11.15;58.66;101915.94;6100294;23;96542;-87
2021/11/18 02:41:46;;;;;;;37.42;13.45;;;;;;;11.51;57.98;101923.13;6099987;23;96708;-87
2021/11/18 02:44:17;;;;;;;40.10;14.07;;;;;;;11.52;57.36;101926.63;6074995;23;97897;-87
2021/11/18 02:46:48;;;;;;;37.25;13.88;;;;;;;11.23;57.44;101923.69;6105417;23;98068;-88
2021/11/18 02:49:18;;;;;;;36.45;13.93;;;;;;;11.48;57.60;101928.47;6107303;23;96567;-87
2021/11/18 02:51:50;;;;;;;37.70;14.57;;;;;;;11.38;57.57;101929.56;6107763;23;96541;-87
2021/11/18 02:54:19;;;;;;;34.63;14.05;;;;;;;11.43;57.82;101927.69;6109709;23;98404;-87
2021/11/18 02:56:52;;;;;;;39.25;13.40;;;;;;;11.04;58.41;101924.03;6111167;23;96907;-87
2021/11/18 02:59:21;;;;;;;36.60;14.05;;;;;;;11.48;57.31;101928.47;6112354;23;96506;-86
2021/11/18 03:01:49;;;;;;;41.03;13.25;;;;;;;11.42;57.46;101927.75;6118246;23;96644;-86
2021/11/18 03:04:16;;;;;;;37.63;14.27;;;;;;;11.28;58.48;101930.66;6122096;22;98299;-85
2021/11/18 03:06:45;;;;;;;41.50;14.93;;;;;;;11.43;58.32;101924.16;6120984;22;98715;-88
2021/11/18 03:09:14;;;;;;;40.83;13.57;;;;;;;11.47;57.54;101926.75;6122270;23;96387;-87
2021/11/18 03:11:41;;;;;;;38.47;13.68;;;;;;;11.50;57.40;101924.00;6122290;22;95910;-87
2021/11/18 03:14:09;;;;;;;33.42;13.82;;;;;;;11.53;56.93;101921.31;6122455;22;99883;-89
2021/11/18 03:16:36;;;;;;;35.00;13.27;;;;;;;11.32;57.80;101915.56;6116854;22;98209;-89
2021/11/18 03:19:05;;;;;;;37.92;14.65;;;;;;;11.23;58.31;101919.25;6103735;23;96533;-89
2021/11/18 03:24:17;;;;;;;39.58;14.00;;;;;;;11.52;57.30;101913.41;6121835;22;98554;-85
2021/11/18 03:29:27;;;;;;;43.45;13.77;;;;;;;11.36;56.96;101915.47;6121663;22;95801;-88
2021/11/18 03:31:55;;;;;;;34.58;12.57;;;;;;;11.33;57.63;101917.31;6117598;22;95886;-89
2021/11/18 03:34:29;;;;;;;38.65;13.20;;;;;;;11.45;57.84;101914.44;6103801;23;98262;-89
2021/11/18 03:36:56;;;;;;;51.53;14.98;;;;;;;11.47;57.28;101908.22;6101574;23;99999;-88
2021/11/18 03:39:26;;;;;;;40.22;13.80;;;;;;;11.33;57.94;101915.56;6105558;23;96704;-87
2021/11/18 03:41:59;;;;;;;41.55;13.02;;;;;;;11.31;57.90;101916.47;6108603;23;96609;-87
2021/11/18 03:44:27;;;;;;;43.58;13.10;;;;;;;11.56;57.38;101918.59;6101897;23;100268;-87
2021/11/18 03:46:57;;;;;;;36.30;13.50;;;;;;;11.29;58.25;101915.66;6075253;23;98613;-88
2021/11/18 03:49:26;;;;;;;34.45;13.18;;;;;;;11.36;58.28;101902.25;6102365;23;96681;-87
2021/11/18 03:51:55;;;;;;;34.63;14.20;;;;;;;11.17;58.80;101901.75;6103021;23;96814;-88
2021/11/18 03:54:29;;;;;;;41.63;13.05;;;;;;;11.15;58.56;101916.81;6075295;23;99003;-88
2021/11/18 03:57:00;;;;;;;37.75;13.10;;;;;;;11.11;58.54;101930.09;6100956;23;99613;-87
2021/11/18 03:59:31;;;;;;;35.92;12.32;;;;;;;11.24;58.80;101930.72;6102645;23;96561;-87
2021/11/18 04:02:01;;;;;;;38.53;12.02;;;;;;;11.44;57.97;101925.91;6103265;23;96463;-87
2021/11/18 04:04:34;;;;;;;39.08;13.02;;;;;;;11.39;57.95;101920.72;6118989;22;100119;-88
2021/11/18 04:09:44;;;;;;;32.88;12.20;;;;;;;11.10;59.30;101944.22;6121909;22;96401;-87
2021/11/18 04:12:15;;;;;;;35.85;12.30;;;;;;;11.32;59.00;101949.97;6110123;22;96580;-88
2021/11/18 04:14:43;;;;;;;36.33;11.98;;;;;;;11.43;58.31;101948.84;6103167;23;97878;-87
2021/11/18 04:17:11;;;;;;;40.38;12.50;;;;;;;11.09;58.59;101934.56;6074808;23;96821;-90
2021/11/18 04:19:41;;;;;;;32.38;12.05;;;;;;;10.96;60.20;101940.97;6105840;23;96874;-90
2021/11/18 04:22:09;;;;;;;36.40;12.65;;;;;;;10.93;59.39;101947.19;6105294;23;97294;-89
2021/11/18 04:27:23;;;;;;;37.22;12.75;;;;;;;11.32;59.06;101944.69;6119646;23;99511;-89
2021/11/18 04:29:50;;;;;;;39.03;12.25;;;;;;;11.53;58.07;101958.38;6121071;22;95956;-88
2021/11/18 04:32:34;;;;;;;35.63;11.38;;;;;;;11.52;57.92;101953.09;6121613;22;96029;-87
2021/11/18 04:35:03;;;;;;;32.55;12.07;;;;;;;11.40;58.35;101964.81;6122217;22;97489;-87
2021/11/18 04:37:30;;;;;;;41.70;12.93;;;;;;;11.06;59.76;101963.69;6122015;22;96690;-89
2021/11/18 04:43:13;;;;;;;37.80;13.00;;;;;;;11.08;59.66;101962.78;6119815;22;95923;-89
2021/11/18 04:46:03;;;;;;;39.20;12.52;;;;;;;11.40;58.48;101974.53;6093335;23;97991;-90
2021/11/18 04:48:31;;;;;;;41.05;12.80;;;;;;;11.25;58.65;101959.81;6119618;23;98567;-88
2021/11/18 04:51:04;;;;;;;33.78;11.07;;;;;;;11.47;58.25;101958.50;6119291;22;96426;-89
2021/11/18 04:53:40;;;;;;;33.58;11.98;;;;;;;11.41;58.50;101971.84;6119317;22;96447;-89
2021/11/18 04:56:22;;;;;;;42.03;12.57;;;;;;;11.46;57.89;101969.97;6118843;22;96759;-88
2021/11/18 04:58:49;;;;;;;32.65;12.13;;;;;;;11.02;59.87;101967.31;6121425;22;98151;-88
2021/11/18 05:01:21;;;;;;;42.00;12.65;;;;;;;11.17;59.42;101959.06;6121607;22;96481;-89
2021/11/18 05:03:48;;;;;;;36.67;12.57;;;;;;;11.25;59.15;101957.16;6095362;23;96672;-89
2021/11/18 05:06:19;;;;;;;35.60;11.43;;;;;;;11.50;57.85;101965.50;6120384;22;99082;-89
2021/11/18 05:08:49;;;;;;;36.45;12.23;;;;;;;11.31;58.65;101962.34;6121260;22;97713;-87
2021/11/18 05:13:59;;;;;;;37.20;12.00;;;;;;;11.42;58.29;101963.00;6118654;22;96447;-87
2021/11/18 05:16:36;;;;;;;33.30;11.65;;;;;;;11.36;58.18;101968.41;6120772;22;98179;-88
2021/11/18 05:21:50;;;;;;;34.63;11.68;;;;;;;11.45;57.78;101967.34;6118937;22;96411;-88
2021/11/18 05:24:19;;;;;;;48.25;13.05;;;;;;;11.31;58.51;101966.75;6118730;22;96008;-88
2021/11/18 05:26:50;;;;;;;39.88;12.15;;;;;;;11.31;58.11;101962.34;6105933;23;98682;-87
2021/11/18 05:29:20;;;;;;;35.10;11.05;;;;;;;11.22;58.28;101959.00;6079036;23;97739;-87
2021/11/18 05:32:07;;;;;;;32.80;11.15;;;;;;;11.23;58.31;101968.66;6101849;23;96595;-87
2021/11/18 05:34:39;;;;;;;33.28;10.63;;;;;;;11.17;59.20;101961.72;6102494;23;96835;-88
2021/11/18 05:39:55;;;;;;;28.73;10.90;;;;;;;11.17;58.72;101978.47;6103880;23;100008;-87
2021/11/18 05:42:23;;;;;;;38.53;11.00;;;;;;;11.08;59.32;101981.28;6082358;23;96686;-86
2021/11/18 05:44:54;;;;;;;28.17;10.65;;;;;;;11.27;58.48;101981.81;6116958;23;95910;-88
2021/11/18 05:50:04;;;;;;;35.25;10.50;;;;;;;10.76;59.47;101983.63;6102471;23;99894;-89
2021/11/18 05:52:34;;;;;;;39.83;12.15;;;;;;;10.70;60.00;101979.28;6104434;23;96628;-87
2021/11/18 05:57:28;;;;;;;38.03;10.02;;;;;;;11.07;58.84;101968.97;6102344;22;125278;-87
2021/11/18 05:59:55;;;;;;;36.92;9.48;;;;;;;10.97;59.46;101974.44;6079196;23;97983;-88
2021/11/18 06:02:28;;;;;;;34.15;10.88;;;;;;;10.80;60.51;101980.03;6110699;23;96545;-86
2021/11/18 06:04:57;;;;;;;33.03;10.32;;;;;;;11.15;58.71;101990.00;6115539;23;95952;-85
2021/11/18 06:07:27;;;;;;;34.55;10.20;;;;;;;11.13;58.84;101992.66;6118728;23;98992;-88
2021/11/18 06:09:56;;;;;;;40.85;10.90;;;;;;;11.02;59.42;101988.47;6096040;23;97720;-86
2021/11/18 06:12:24;;;;;;;30.70;9.68;;;;;;;11.14;59.14;101989.13;6122491;23;95927;-86
2021/11/18 06:14:54;;;;;;;36.42;9.63;;;;;;;11.35;58.22;101992.28;6121829;23;96018;-85
2021/11/18 06:17:32;;;;;;;26.13;9.70;;;;;;;11.37;57.99;101999.25;6111846;23;97223;-85
2021/11/18 06:20:29;;;;;;;37.83;9.75;;;;;;;11.32;58.11;101990.53;6105157;23;98949;-87
2021/11/18 06:22:59;;;;;;;30.58;8.18;;;;;;;11.25;58.60;101983.63;6106291;23;96597;-88
2021/11/18 06:25:28;;;;;;;33.17;8.95;;;;;;;11.34;57.99;101987.88;6081376;23;96734;-87
2021/11/18 06:27:56;;;;;;;31.25;8.80;;;;;;;11.58;57.56;101998.84;6107513;23;98630;-89
2021/11/18 06:30:28;;;;;;;31.95;9.05;;;;;;;11.25;58.10;102002.13;6106918;23;99572;-88
2021/11/18 06:32:59;;;;;;;33.33;9.48;;;;;;;11.48;57.73;102010.53;6104850;23;96782;-86
2021/11/18 06:35:26;;;;;;;32.63;8.45;;;;;;;11.47;57.76;102006.16;6083637;23;96742;-89
2021/11/18 06:40:46;;;;;;;35.80;9.35;;;;;;;11.26;58.63;102013.59;6113095;23;98716;-84
2021/11/18 06:43:13;;;;;;;31.52;9.15;;;;;;;11.52;57.79;102024.56;6118729;23;96676;-86
2021/11/18 06:45:45;;;;;;;31.50;9.32;;;;;;;11.70;57.79;102025.97;6122427;23;96629;-85
2021/11/18 06:48:30;;;;;;;29.17;8.27;;;;;;;11.27;58.14;102032.09;6121959;23;99456;-86
2021/11/18 06:59:33;;;;;;;29.88;8.07;;;;;;;11.61;57.27;102036.78;6120927;23;98944;-86
2021/11/18 07:02:05;;;;;;;29.65;7.90;;;;;;;11.63;57.49;102040.25;6122319;23;97059;-85
2021/11/18 07:04:49;;;;;;;28.52;8.15;;;;;;;11.85;56.60;102042.47;6114280;23;96938;-84
2021/11/18 07:10:01;;;;;;;31.25;8.07;;;;;;;11.85;56.79;102046.91;6116746;23;99979;-84
2021/11/18 07:12:45;;;;;;;29.90;8.32;;;;;;;11.97;56.43;102038.69;6114510;23;99654;-85
2021/11/18 07:15:13;;;;;;;27.35;7.90;;;;;;;12.01;55.90;102040.41;6100144;23;96832;-85
2021/11/18 07:17:43;;;;;;;33.08;7.40;;;;;;;12.16;55.96;102041.81;6105763;23;96680;-85
2021/11/18 07:22:52;;;;;;;29.15;7.10;;;;;;;12.29;55.28;102043.31;6115896;23;98437;-85
2021/11/18 07:25:25;;;;;;;27.83;8.02;;;;;;;12.49;54.73;102049.03;6113879;23;97267;-85
2021/11/18 07:27:56;;;;;;;38.15;8.55;;;;;;;12.34;54.43;102042.28;6112826;23;96502;-85
2021/11/18 07:30:25;;;;;;;31.48;7.38;;;;;;;12.34;55.34;102057.31;6109679;23;100735;-85
2021/11/18 07:32:54;;;;;;;30.95;7.45;;;;;;;12.47;54.54;102055.31;6112149;23;99241;-84
2021/11/18 07:35:25;;;;;;;29.35;8.15;;;;;;;12.64;54.38;102053.13;6118667;23;96311;-83
2021/11/18 07:37:52;;;;;;;33.00;8.05;;;;;;;12.40;55.04;102053.69;6122243;23;96256;-83
2021/11/18 07:40:30;;;;;;;28.67;7.53;;;;;;;12.33;55.44;102072.38;6121975;23;96786;-84
2021/11/18 07:42:58;;;;;;;27.48;7.15;;;;;;;12.60;54.90;102070.03;6120099;23;99830;-79
2021/11/18 07:45:26;;;;;;;27.02;7.25;;;;;;;12.27;55.66;102076.94;6092014;23;95808;-80
2021/11/18 07:47:52;;;;;;;26.05;8.20;;;;;;;12.51;55.30;102072.88;6100626;23;97184;-80
2021/11/18 07:50:21;;;;;;;29.35;7.28;;;;;;;12.51;55.17;102070.22;6101838;23;100319;-81
2021/11/18 07:52:48;;;;;;;28.42;7.65;;;;;;;12.62;55.08;102079.66;6099339;23;99146;-79
2021/11/18 07:55:17;;;;;;;29.45;7.88;;;;;;;11.97;56.64;102078.44;6101535;23;96614;-79
2021/11/18 07:57:44;;;;;;;23.58;6.85;;;;;;;12.28;56.29;102083.97;6100761;23;96650;-79
2021/11/18 08:00:16;;;;;;;31.30;7.70;;;;;;;12.43;55.75;102082.75;6098079;23;96858;-80
2021/11/18 08:02:43;;;;;;;27.77;6.75;;;;;;;12.41;55.47;102076.63;6099938;23;98104;-79
2021/11/18 08:05:11;;;;;;;30.42;7.53;;;;;;;12.70;55.41;102082.16;6100286;23;96569;-80
2021/11/18 08:07:38;;;;;;;40.25;7.03;;;;;;;12.38;56.33;102078.44;6098342;23;96936;-80
2021/11/18 08:10:06;;;;;;;27.67;7.07;;;;;;;12.52;55.79;102075.50;6096073;23;96890;-81
2021/11/18 08:12:34;;;;;;;24.98;6.47;;;;;;;12.65;55.36;102076.09;6095549;23;99281;-80
2021/11/18 08:15:01;;;;;;;36.80;7.80;;;;;;;12.53;56.07;102073.72;6096248;23;96578;-80
2021/11/18 08:17:29;;;;;;;21.45;7.20;;;;;;;12.75;55.33;102074.94;6097427;23;97165;-80
2021/11/18 08:19:55;;;;;;;35.67;6.88;;;;;;;12.47;56.20;102090.59;6096597;23;98172;-81
2021/11/18 08:22:22;;;;;;;27.27;8.23;;;;;;;12.23;56.84;102085.84;6095712;23;99196;-81
2021/11/18 08:24:48;;;;;;;30.30;7.53;;;;;;;12.56;56.71;102094.84;6096948;23;96714;-80
2021/11/18 08:27:15;;;;;;;33.30;7.60;;;;;;;12.57;56.42;102091.28;6098285;23;96793;-83
2021/11/18 08:29:42;;;;;;;26.83;7.13;;;;;;;12.72;56.10;102081.22;6096034;23;100228;-81
2021/11/18 08:32:10;;;;;;;31.45;8.38;;;;;;;12.52;56.32;102082.56;6097085;23;101223;-81
2021/11/18 08:34:38;;;;;;;28.65;6.82;;;;;;;12.66;57.12;102086.66;6096750;23;96589;-79
2021/11/18 08:37:06;;;;;;;27.73;8.07;;;;;;;12.88;56.60;102094.09;6097068;23;96769;-80
2021/11/18 08:39:33;;;;;;;29.58;7.20;;;;;;;12.69;56.94;102091.00;6095727;23;100746;-80
2021/11/18 08:42:03;;;;;;;28.42;7.63;;;;;;;12.74;56.91;102094.41;6096826;23;98091;-81
2021/11/18 08:44:33;;;;;;;30.38;8.20;;;;;;;12.76;56.89;102082.88;6098258;23;96683;-80
2021/11/18 08:47:01;;;;;;;35.28;8.02;;;;;;;12.64;57.60;102096.44;6099845;23;96674;-81
2021/11/18 08:49:28;;;;;;;26.38;7.53;;;;;;;12.87;57.19;102095.88;6101129;23;97098;-81
2021/11/18 08:51:58;;;;;;;30.27;7.93;;;;;;;12.90;57.39;102087.00;6109316;23;98819;-81
2021/11/18 08:54:28;;;;;;;30.85;8.25;;;;;;;13.15;56.44;102093.47;6118444;23;96438;-78
2021/11/18 08:57:02;;;;;;;32.85;8.65;;;;;;;12.89;57.44;102094.06;6119479;23;96383;-81
2021/11/18 08:59:29;;;;;;;32.03;8.23;;;;;;;12.95;57.95;102098.34;6115898;23;98133;-80
2021/11/18 09:02:02;;;;;;;38.05;8.00;;;;;;;13.29;56.94;102106.41;6112512;23;96883;-80
2021/11/18 09:04:30;;;;;;;42.13;8.80;;;;;;;12.77;59.10;102103.19;6111879;23;96499;-79
2021/11/18 09:06:58;;;;;;;32.55;9.27;;;;;;;13.34;57.09;102109.81;6111146;23;96586;-80
2021/11/18 09:09:27;;;;;;;34.28;9.23;;;;;;;13.02;58.33;102103.47;6107383;23;97780;-80
2021/11/18 09:11:56;;;;;;;34.63;9.18;;;;;;;13.31;57.67;102107.25;6108501;23;99219;-79
2021/11/18 09:14:24;;;;;;;34.92;8.90;;;;;;;13.30;56.99;102103.72;6106369;23;96656;-80
2021/11/18 09:16:51;;;;;;;30.27;8.07;;;;;;;13.35;56.72;102103.59;6107207;23;96513;-80
2021/11/18 09:19:20;;;;;;;37.80;9.18;;;;;;;13.36;56.41;102102.69;6106507;23;98851;-80
2021/11/18 09:21:48;;;;;;;34.22;10.00;;;;;;;13.33;57.13;102110.72;6108602;23;97747;-79
2021/11/18 09:24:19;;;;;;;34.55;9.27;;;;;;;13.44;56.85;102106.91;6107178;23;96728;-81
2021/11/18 09:26:55;;;;;;;30.27;8.25;;;;;;;13.56;56.43;102111.00;6107933;23;97014;-80
2021/11/18 09:29:23;;;;;;;33.03;8.95;;;;;;;13.11;58.14;102111.22;6105198;23;101594;-83
2021/11/18 09:32:00;;;;;;;35.47;8.68;;;;;;;12.90;57.22;102106.44;6112362;23;99444;-80
2021/11/18 09:34:51;;;;;;;;;;;;;;;;;;;;;
2021/11/18 09:37:22;;;;;;;36.20;8.45;;;;;;;12.90;58.78;102101.13;6107563;23;112069;-81
2021/11/18 09:39:53;;;;;;;44.22;8.95;;;;;;;13.04;59.07;102098.16;6110178;23;96826;-81
2021/11/18 09:42:31;;;;;;;33.70;7.82;;;;;;;13.38;57.52;102093.78;6109986;23;98833;-80
2021/11/18 09:45:09;;;;;;;35.55;8.80;;;;;;;13.38;57.59;102077.84;6104005;23;96501;-80
2021/11/18 09:48:15;;;;;;;33.72;8.45;;;;;;;13.29;57.84;102090.47;6101769;23;97055;-80
2021/11/18 09:50:51;;;;;;;37.90;9.43;;;;;;;13.41;57.46;102084.84;6099025;23;101139;-82
2021/11/18 09:53:31;;;;;;;42.75;9.75;;;;;;;13.39;57.45;102079.56;6098168;23;99025;-81
2021/11/18 09:56:09;;;;;;;34.95;8.98;;;;;;;13.67;56.50;102082.38;6098776;23;97557;-79
2021/11/18 09:58:54;;;;;;;32.38;7.90;;;;;;;13.33;57.02;102086.81;6101778;23;96726;-80
2021/11/18 10:01:52;;;;;;;38.28;8.32;;;;;;;12.90;59.34;102079.91;6113122;23;97803;-79
2021/11/18 10:04:36;;;;;;;40.45;9.60;;;;;;;13.02;57.46;102076.94;6087938;23;96526;-81
2021/11/18 10:07:09;;;;;;;42.75;9.30;;;;;;;13.15;58.70;102074.91;6111849;23;96545;-80
2021/11/18 10:09:43;;;;;;;33.63;8.32;;;;;;;13.66;57.10;102071.78;6113736;23;97071;-79
2021/11/18 10:12:34;;;;;;;50.95;9.57;;;;;;;13.70;57.10;102076.97;6116472;23;97749;-81
2021/11/18 10:15:09;;;;;;;40.35;9.20;;;;;;;13.57;57.22;102076.44;6107143;23;98520;-80
2021/11/18 10:17:40;;;;;;;36.05;7.53;;;;;;;13.69;57.07;102083.22;6113833;23;96602;-79
2021/11/18 10:20:10;;;;;;;41.33;8.38;;;;;;;13.94;56.25;102070.09;6111726;23;96502;-81
2021/11/18 10:22:40;;;;;;;31.95;8.15;;;;;;;13.89;56.23;102082.66;6100608;23;97635;-81
2021/11/18 10:25:10;;;;;;;35.17;8.98;;;;;;;13.80;56.57;102086.44;6097515;23;101577;-80
2021/11/18 10:27:41;;;;;;;42.60;9.13;;;;;;;14.26;55.42;102088.66;6096994;23;96829;-80
2021/11/18 10:30:13;;;;;;;31.33;7.43;;;;;;;14.11;55.24;102089.09;6098332;23;96760;-80
2021/11/18 10:32:57;;;;;;;30.35;8.05;;;;;;;14.02;55.87;102092.03;6095620;23;99631;-80
2021/11/18 10:35:33;;;;;;;39.08;8.43;;;;;;;14.11;55.19;102090.91;6096028;23;101008;-81
2021/11/18 10:38:22;;;;;;;36.17;8.07;;;;;;;14.26;55.05;102093.09;6097012;23;96745;-82
2021/11/18 10:41:02;;;;;;;44.30;8.88;;;;;;;14.30;54.26;102087.66;6096363;23;97211;-80
2021/11/18 10:43:34;;;;;;;33.03;8.50;;;;;;;14.18;55.03;102092.44;6095003;23;100730;-80
2021/11/18 10:46:11;;;;;;;35.75;8.23;;;;;;;14.25;55.08;102100.19;6095401;23;101552;-81
2021/11/18 10:48:40;;;;;;;38.70;8.75;;;;;;;14.02;55.68;102089.38;6097910;23;96803;-80
2021/11/18 10:51:09;;;;;;;35.72;8.65;;;;;;;13.90;56.73;102082.63;6095874;23;96750;-80
2021/11/18 10:53:48;;;;;;;32.70;7.53;;;;;;;14.23;55.12;102080.78;6095057;23;99298;-81
2021/11/18 10:56:18;;;;;;;33.83;8.20;;;;;;;14.47;54.30;102079.19;6095449;23;99175;-80
2021/11/18 10:58:49;;;;;;;31.00;8.27;;;;;;;13.99;55.95;102086.78;6095654;23;96829;-80
2021/11/18 11:01:31;;;;;;;36.00;8.13;;;;;;;14.29;55.37;102077.06;6109511;23;97226;-80
2021/11/18 11:03:59;;;;;;;35.05;8.18;;;;;;;14.31;55.25;102069.88;6095702;23;98801;-80
2021/11/18 11:06:27;;;;;;;37.30;8.75;;;;;;;14.01;55.70;102066.34;6096075;23;98891;-81
2021/11/18 11:09:11;;;;;;;30.10;7.80;;;;;;;14.30;55.06;102071.69;6096523;23;96653;-80
2021/11/18 11:11:58;;;;;;;30.15;8.00;;;;;;;14.45;54.02;102049.09;6097270;23;96932;-79
2021/11/18 11:14:41;;;;;;;;;;;;;;;14.40;54.32;102066.13;6094927;23;98881;-79
2021/11/18 11:17:29;;;;;;;32.10;9.45;;;;;;;14.28;54.62;102064.69;6095553;23;99254;-80
2021/11/18 11:20:03;;;;;;;44.25;8.27;;;;;;;13.82;55.89;102052.72;6096334;23;97144;-80
2021/11/18 11:22:40;;;;;;;41.72;8.35;;;;;;;14.07;55.53;102062.66;6096284;23;96643;-80
2021/11/18 11:25:21;;;;;;;30.48;8.18;;;;;;;14.27;54.91;102061.16;6095594;23;98335;-79
2021/11/18 11:28:03;;;;;;;38.35;7.63;;;;;;;14.47;54.63;102057.91;6096616;23;99713;-80
2021/11/18 11:30:38;;;;;;;31.88;7.47;;;;;;;14.76;52.90;102035.72;6099066;23;96983;-79
2021/11/18 11:33:15;;;;;;;40.15;8.35;;;;;;;14.87;53.23;102038.91;6108008;23;96592;-80
2021/11/18 11:35:49;;;;;;;33.17;9.90;;;;;;;14.41;54.39;102033.31;6109388;23;101413;-80
2021/11/18 11:38:55;;;;;;;34.38;8.45;;;;;;;14.70;54.13;102038.59;6112543;23;97679;-80
2021/11/18 11:42:00;;;;;;;46.65;8.30;;;;;;;14.02;54.91;102032.69;6103126;23;96789;-81
2021/11/18 11:44:40;;;;;;;29.65;8.38;;;;;;;14.37;54.89;102040.47;6099651;23;96782;-79
2021/11/18 11:47:21;;;;;;;35.83;8.18;;;;;;;14.78;54.05;102020.56;6096697;23;97806;-79
2021/11/18 11:49:58;;;;;;;35.17;7.57;;;;;;;14.83;53.55;102021.31;6096552;23;99245;-79
2021/11/18 11:52:34;;;;;;;35.72;7.22;;;;;;;14.77;53.49;102018.81;6098148;23;96983;-80
2021/11/18 11:55:05;;;;;;;;;;;;;;;15.00;52.92;102020.72;6097706;23;96700;-79
2021/11/18 11:57:48;;;;;;;25.80;7.28;;;;;;;14.99;53.02;102024.31;6096669;23;99145;-79
2021/11/18 12:00:23;;;;;;;35.55;8.23;;;;;;;15.29;52.64;102030.41;6096064;23;98882;-80
2021/11/18 12:03:09;;;;;;;30.15;8.25;;;;;;;15.19;52.64;102007.66;6096908;23;96638;-80
2021/11/18 12:05:41;;;;;;;41.80;9.38;;;;;;;15.50;51.94;102014.50;6098134;23;96919;-79
2021/11/18 12:08:12;;;;;;;38.40;8.10;;;;;;;15.43;51.53;102009.44;6116402;23;98210;-80
2021/11/18 12:10:43;;;;;;;29.38;8.40;;;;;;;15.43;51.48;102022.75;6116527;23;96870;-80
2021/11/18 12:13:25;;;;;;;31.60;8.23;;;;;;;14.77;53.16;102020.63;6118534;23;96139;-81
2021/11/18 12:15:55;;;;;;;36.72;8.65;;;;;;;15.25;52.25;102029.63;6099534;23;97270;-81
2021/11/18 12:18:28;;;;;;;31.15;7.18;;;;;;;15.27;51.80;102026.91;6096506;23;97941;-81
2021/11/18 12:20:56;;;;;;;23.75;8.40;;;;;;;15.36;51.66;102021.28;6098515;23;96774;-81
2021/11/18 12:24:00;;;;;;;29.55;8.18;;;;;;;15.70;51.01;102002.28;6113263;23;95962;-79
2021/11/18 12:26:28;;;;;;;36.28;9.48;;;;;;;15.52;51.48;102001.13;6119921;23;97049;-81